createdAt,value
2019-01-25T00:02:08.179Z,-1.81
2019-01-25T00:04:38.506Z,-1.78
2019-01-25T00:07:08.688Z,-1.80
2019-01-25T00:09:39.220Z,-1.86
2019-01-25T00:12:09.498Z,-1.89
2019-01-25T00:14:40.144Z,-1.91
2019-01-25T00:17:10.549Z,-1.94
2019-01-25T00:19:41.180Z,-1.91
2019-01-25T00:22:11.451Z,-1.91
2019-01-25T00:24:41.733Z,-1.91
2019-01-25T00:27:12.368Z,-1.96
2019-01-25T00:29:42.981Z,-1.97
2019-01-25T00:32:13.263Z,-2.04
2019-01-25T00:34:43.744Z,-2.01
2019-01-25T00:37:14.004Z,-2.01
2019-01-25T00:39:45.201Z,-2.04
2019-01-25T00:42:15.381Z,-2.11
2019-01-25T00:44:45.702Z,-2.08
2019-01-25T00:47:16.291Z,-2.12
2019-01-25T00:49:46.627Z,-2.09
2019-01-25T00:52:16.911Z,-2.14
2019-01-25T00:54:47.163Z,-2.17
2019-01-25T00:57:17.465Z,-2.21
2019-01-25T00:59:47.700Z,-2.19
2019-01-25T01:02:17.992Z,-2.22
2019-01-25T01:04:48.261Z,-2.20
2019-01-25T01:07:19.133Z,-2.25
2019-01-25T01:09:49.325Z,-2.32
2019-01-25T01:12:19.658Z,-2.35
2019-01-25T01:14:51.542Z,-2.36
2019-01-25T01:17:21.873Z,-2.38
2019-01-25T01:19:52.460Z,-2.41
2019-01-25T01:22:23.090Z,-2.48
2019-01-25T01:24:53.366Z,-2.52
2019-01-25T01:27:23.632Z,-2.53
2019-01-25T01:29:53.891Z,-2.58
2019-01-25T01:32:24.183Z,-2.69
2019-01-25T01:34:54.449Z,-2.78
2019-01-25T01:37:24.734Z,-2.84
2019-01-25T01:39:54.930Z,-2.93
2019-01-25T01:42:25.481Z,-3.00
2019-01-25T01:44:56.112Z,-3.09
2019-01-25T01:47:26.350Z,-3.12
2019-01-25T01:49:57.277Z,-3.12
2019-01-25T01:52:27.594Z,-3.13
2019-01-25T01:54:57.862Z,-3.17
2019-01-25T01:57:28.128Z,-3.21
2019-01-25T01:59:58.422Z,-3.21
2019-01-25T02:02:28.676Z,-3.35
2019-01-25T02:04:59.091Z,-3.55
2019-01-25T02:07:29.374Z,-3.66
2019-01-25T02:09:59.621Z,-3.67
2019-01-25T02:12:29.845Z,-3.66
2019-01-25T02:15:00.077Z,-3.73
2019-01-25T02:17:30.454Z,-3.84
2019-01-25T02:20:00.711Z,-3.90
2019-01-25T02:22:31.001Z,-3.94
2019-01-25T02:25:01.325Z,-3.95
2019-01-25T02:27:31.620Z,-3.98
2019-01-25T02:30:02.371Z,-4.00
2019-01-25T02:32:33.104Z,-3.98
2019-01-25T02:35:03.285Z,-3.98
2019-01-25T02:37:33.485Z,-3.73
2019-01-25T02:40:04.122Z,-3.67
2019-01-25T02:42:34.390Z,-3.66
2019-01-25T02:45:04.909Z,-3.63
2019-01-25T02:47:35.719Z,-3.60
2019-01-25T02:50:08.172Z,-3.57
2019-01-25T02:52:38.758Z,-3.53
2019-01-25T02:55:09.856Z,-3.51
2019-01-25T02:57:40.339Z,-3.56
2019-01-25T03:00:14.700Z,-3.65
2019-01-25T03:02:45.107Z,-3.73
2019-01-25T03:05:17.034Z,-3.78
2019-01-25T03:07:47.293Z,-3.72
2019-01-25T03:10:17.974Z,-3.55
2019-01-25T03:12:49.538Z,-3.58
2019-01-25T03:15:21.968Z,-3.66
2019-01-25T03:19:36.292Z,-3.89
2019-01-25T03:22:06.835Z,-3.94
2019-01-25T03:24:37.374Z,-3.96
2019-01-25T03:27:07.672Z,-3.95
2019-01-25T03:29:38.317Z,-3.92
2019-01-25T03:32:08.641Z,-3.96
2019-01-25T03:34:39.176Z,-4.02
2019-01-25T03:37:09.568Z,-4.02
2019-01-25T03:39:40.132Z,-3.98
2019-01-25T03:42:10.447Z,-3.91
2019-01-25T03:44:40.990Z,-3.81
2019-01-25T03:47:11.299Z,-3.67
2019-01-25T03:49:41.572Z,-3.55
2019-01-25T03:52:12.163Z,-3.46
2019-01-25T03:54:42.427Z,-3.39
2019-01-25T03:57:12.710Z,-3.42
2019-01-25T03:59:42.988Z,-3.42
2019-01-25T04:02:13.186Z,-3.41
2019-01-25T04:04:43.456Z,-3.43
2019-01-25T04:07:13.765Z,-3.40
2019-01-25T04:09:44.332Z,-3.37
2019-01-25T04:12:14.962Z,-3.36
2019-01-25T04:14:45.594Z,-3.34
2019-01-25T04:17:15.881Z,-3.32
2019-01-25T04:19:46.104Z,-3.43
2019-01-25T04:22:16.671Z,-3.65
2019-01-25T04:24:47.301Z,-3.77
2019-01-25T04:27:17.654Z,-3.90
2019-01-25T04:29:48.026Z,-4.01
2019-01-25T04:32:18.356Z,-4.10
2019-01-25T04:34:48.609Z,-4.15
2019-01-25T04:37:19.352Z,-4.22
2019-01-25T04:39:49.980Z,-4.27
2019-01-25T04:42:21.397Z,-4.25
2019-01-25T04:44:53.958Z,-4.38
2019-01-25T04:47:28.704Z,-4.49
2019-01-25T04:49:58.931Z,-4.62
2019-01-25T04:52:29.284Z,-4.78
2019-01-25T04:55:01.034Z,-4.94
2019-01-25T04:57:32.141Z,-5.01
2019-01-25T05:00:02.678Z,-4.91
2019-01-25T05:02:33.014Z,-4.72
2019-01-25T05:05:03.662Z,-4.58
2019-01-25T05:07:35.635Z,-4.42
2019-01-25T05:10:06.992Z,-4.21
2019-01-25T05:12:38.624Z,-4.04
2019-01-25T05:15:09.257Z,-3.97
2019-01-25T05:17:41.998Z,-4.08
2019-01-25T05:20:13.335Z,-4.19
2019-01-25T05:22:45.700Z,-4.42
2019-01-25T05:25:22.085Z,-4.63
2019-01-25T05:27:52.842Z,-4.85
2019-01-25T05:30:23.403Z,-5.02
2019-01-25T05:32:54.435Z,-5.16
2019-01-25T05:35:24.783Z,-5.23
2019-01-25T05:37:55.071Z,-5.27
2019-01-25T05:40:26.567Z,-5.17
2019-01-25T05:42:57.036Z,-5.02
2019-01-25T05:45:27.351Z,-4.78
2019-01-25T05:47:57.970Z,-4.52
2019-01-25T05:50:28.222Z,-4.30
2019-01-25T05:52:58.886Z,-4.13
2019-01-25T05:55:30.836Z,-3.97
2019-01-25T05:58:03.081Z,-3.82
2019-01-25T06:00:35.891Z,-3.68
2019-01-25T06:03:10.314Z,-3.59
2019-01-25T06:05:40.992Z,-3.51
2019-01-25T06:08:32.481Z,-3.53
2019-01-25T06:11:10.988Z,-3.59
2019-01-25T06:13:46.501Z,-3.65
2019-01-25T06:16:17.322Z,-3.68
2019-01-25T06:18:47.939Z,-3.63
2019-01-25T06:21:18.496Z,-3.57
2019-01-25T06:23:51.152Z,-3.47
2019-01-25T06:26:21.416Z,-3.45
2019-01-25T06:28:52.786Z,-3.31
2019-01-25T06:31:23.395Z,-3.30
2019-01-25T06:33:54.057Z,-3.29
2019-01-25T06:36:24.451Z,-3.29
2019-01-25T06:38:55.109Z,-3.28
2019-01-25T06:41:25.742Z,-3.24
2019-01-25T06:43:56.374Z,-3.19
2019-01-25T06:46:27.692Z,-3.16
2019-01-25T06:48:58.989Z,-3.10
2019-01-25T06:51:29.609Z,-3.09
2019-01-25T06:54:00.226Z,-3.09
2019-01-25T06:56:30.857Z,-3.09
2019-01-25T06:59:18.797Z,-3.10
2019-01-25T07:01:56.395Z,-3.07
2019-01-25T07:04:26.718Z,-3.04
2019-01-25T07:06:56.970Z,-3.07
2019-01-25T07:09:27.290Z,-3.04
2019-01-25T07:11:57.898Z,-3.08
2019-01-25T07:14:28.269Z,-3.14
2019-01-25T07:16:58.792Z,-3.08
2019-01-25T07:19:29.545Z,-3.11
2019-01-25T07:22:00.120Z,-3.18
2019-01-25T07:24:30.747Z,-3.25
2019-01-25T07:27:02.097Z,-3.29
2019-01-25T07:29:33.572Z,-3.34
2019-01-25T07:32:04.385Z,-3.24
2019-01-25T07:34:34.768Z,-3.19
2019-01-25T07:37:04.995Z,-3.12
2019-01-25T07:39:35.362Z,-2.97
2019-01-25T07:42:05.726Z,-2.93
2019-01-25T07:44:36.039Z,-2.90
2019-01-25T07:47:06.491Z,-2.90
2019-01-25T07:49:37.088Z,-2.82
2019-01-25T07:52:07.650Z,-2.71
2019-01-25T07:54:38.138Z,-2.63
2019-01-25T07:57:08.381Z,-2.54
2019-01-25T07:59:38.890Z,-2.43
2019-01-25T08:02:09.495Z,-2.34
2019-01-25T08:04:39.811Z,-2.17
2019-01-25T08:07:10.570Z,-2.05
2019-01-25T08:09:40.921Z,-1.97
2019-01-25T08:12:11.434Z,-1.89
2019-01-25T08:14:42.063Z,-1.79
2019-01-25T08:17:12.643Z,-1.81
2019-01-25T08:19:42.872Z,-1.87
2019-01-25T08:22:13.106Z,-1.88
2019-01-25T08:24:43.638Z,-1.79
2019-01-25T08:27:13.890Z,-1.54
2019-01-25T08:29:44.958Z,-1.35
2019-01-25T08:32:15.657Z,-1.13
2019-01-25T08:34:45.957Z,-1.11
2019-01-25T08:37:16.175Z,-0.97
2019-01-25T08:39:51.169Z,-0.72
2019-01-25T08:42:21.881Z,-0.52
2019-01-25T08:44:52.154Z,-0.23
2019-01-25T08:47:22.678Z,-0.16
2019-01-25T08:49:57.783Z,0.05
2019-01-25T08:52:25.017Z,0.07
2019-01-25T08:54:55.618Z,0.05
2019-01-25T08:57:28.195Z,0.22
2019-01-25T08:59:58.380Z,0.46
2019-01-25T09:02:28.651Z,0.48
2019-01-25T09:04:59.245Z,0.27
2019-01-25T09:07:29.499Z,0.52
2019-01-25T09:10:00.154Z,0.75
2019-01-25T09:12:30.794Z,0.59
2019-01-25T09:15:01.106Z,0.64
2019-01-25T09:17:31.948Z,0.57
2019-01-25T09:20:02.259Z,0.53
2019-01-25T09:22:32.552Z,0.52
2019-01-25T09:25:02.839Z,0.39
2019-01-25T09:27:33.133Z,0.42
2019-01-25T09:30:03.414Z,0.34
2019-01-25T09:32:33.686Z,0.41
2019-01-25T09:35:06.923Z,0.41
2019-01-25T09:37:37.269Z,0.26
2019-01-25T09:40:09.934Z,0.36
2019-01-25T09:42:40.226Z,0.56
2019-01-25T09:45:10.952Z,0.73
2019-01-25T09:47:41.423Z,0.65
2019-01-25T09:50:14.282Z,0.75
2019-01-25T09:52:44.611Z,0.78
2019-01-25T09:55:17.270Z,0.83
2019-01-25T09:57:48.688Z,0.77
2019-01-25T10:00:25.184Z,0.70
2019-01-25T10:02:56.179Z,0.95
2019-01-25T10:05:26.994Z,1.03
2019-01-25T10:07:58.922Z,1.11
2019-01-25T10:10:29.534Z,1.17
2019-01-25T10:13:00.351Z,1.22
2019-01-25T10:15:30.668Z,1.35
2019-01-25T10:18:00.968Z,1.29
2019-01-25T10:20:32.195Z,1.48
2019-01-25T10:23:02.480Z,1.53
2019-01-25T10:25:32.928Z,1.31
2019-01-25T10:28:03.168Z,1.29
2019-01-25T10:30:33.503Z,1.20
2019-01-25T10:33:04.526Z,1.36
2019-01-25T10:39:05.011Z,1.97
2019-01-25T10:41:35.611Z,1.99
2019-01-25T10:44:08.026Z,2.09
2019-01-25T10:46:38.249Z,1.87
2019-01-25T10:49:08.535Z,1.97
2019-01-25T10:51:39.127Z,1.91
2019-01-25T10:54:09.598Z,2.02
2019-01-25T10:56:41.884Z,1.88
2019-01-25T10:59:11.860Z,2.06
2019-01-25T11:01:42.033Z,2.15
2019-01-25T11:04:12.934Z,2.15
2019-01-25T11:06:43.120Z,2.10
2019-01-25T11:09:15.127Z,2.07
2019-01-25T11:11:45.609Z,2.02
2019-01-25T11:14:15.864Z,2.26
2019-01-25T11:16:46.101Z,2.30
2019-01-25T11:19:16.421Z,2.60
2019-01-25T11:21:46.691Z,2.66
2019-01-25T11:24:17.271Z,2.78
2019-01-25T11:26:49.600Z,2.75
2019-01-25T11:29:20.281Z,3.01
2019-01-25T11:31:50.733Z,2.72
2019-01-25T11:34:21.050Z,2.88
2019-01-25T11:36:51.415Z,2.95
2019-01-25T11:39:21.683Z,3.22
2019-01-25T11:41:51.870Z,4.21
2019-01-25T11:44:22.737Z,5.14
2019-01-25T11:46:53.328Z,6.74
2019-01-25T11:49:23.623Z,8.60
2019-01-25T11:51:53.946Z,8.69
2019-01-25T11:54:24.319Z,9.84
2019-01-25T11:56:54.977Z,9.23
2019-01-25T11:59:25.359Z,9.77
2019-01-25T12:01:55.587Z,10.87
2019-01-25T12:04:26.134Z,11.80
2019-01-25T12:06:56.924Z,11.68
2019-01-25T12:09:27.236Z,11.41
2019-01-25T12:11:58.054Z,12.18
2019-01-25T12:14:28.972Z,12.53
2019-01-25T12:16:59.974Z,13.10
2019-01-25T12:19:30.605Z,12.94
2019-01-25T12:22:02.566Z,13.29
2019-01-25T12:24:33.041Z,13.24
2019-01-25T12:27:03.644Z,12.77
2019-01-25T12:29:38.044Z,13.32
2019-01-25T12:32:08.577Z,14.41
2019-01-25T12:34:39.152Z,14.80
2019-01-25T12:37:10.418Z,15.34
2019-01-25T12:39:40.851Z,15.30
2019-01-25T12:42:11.304Z,15.00
2019-01-25T12:44:41.898Z,12.56
2019-01-25T12:47:12.329Z,12.35
2019-01-25T12:49:43.211Z,13.17
2019-01-25T12:52:13.733Z,14.15
2019-01-25T12:54:44.563Z,15.03
2019-01-25T12:57:15.825Z,14.83
2019-01-25T12:59:46.270Z,15.52
2019-01-25T13:02:16.877Z,16.58
2019-01-25T13:04:48.097Z,17.99
2019-01-25T13:07:19.778Z,17.75
2019-01-25T13:09:50.384Z,17.04
2019-01-25T13:12:25.219Z,16.21
2019-01-25T13:14:54.009Z,16.13
2019-01-25T13:17:25.022Z,15.72
2019-01-25T13:19:55.711Z,14.03
2019-01-25T13:22:26.114Z,14.98
2019-01-25T13:24:57.180Z,12.82
2019-01-25T13:27:28.364Z,11.49
2019-01-25T13:29:59.321Z,11.95
2019-01-25T13:32:29.965Z,9.83
2019-01-25T13:35:00.667Z,8.60
2019-01-25T13:37:31.915Z,10.00
2019-01-25T13:40:02.233Z,12.52
2019-01-25T13:42:33.636Z,13.78
2019-01-25T13:45:04.540Z,15.39
2019-01-25T13:47:36.588Z,16.39
2019-01-25T13:50:09.181Z,17.56
2019-01-25T13:52:39.822Z,18.42
2019-01-25T13:55:12.225Z,19.36
2019-01-25T13:57:43.136Z,18.62
2019-01-25T14:00:17.576Z,19.43
2019-01-25T14:02:48.631Z,19.93
2019-01-25T14:05:20.285Z,19.01
2019-01-25T14:07:51.316Z,17.66
2019-01-25T14:10:24.548Z,16.68
2019-01-25T14:12:55.161Z,15.99
2019-01-25T14:15:25.907Z,15.65
2019-01-25T14:17:56.440Z,16.80
2019-01-25T14:20:28.664Z,18.53
2019-01-25T14:22:59.562Z,18.97
2019-01-25T14:25:30.803Z,20.39
2019-01-25T14:28:01.390Z,20.40
2019-01-25T14:30:38.195Z,19.99
2019-01-25T14:33:09.746Z,18.68
2019-01-25T14:35:41.385Z,18.46
2019-01-25T14:38:16.649Z,18.69
2019-01-25T14:40:47.684Z,18.33
2019-01-25T14:43:18.341Z,17.52
2019-01-25T14:45:49.527Z,16.82
2019-01-25T14:48:20.260Z,17.46
2019-01-25T14:50:51.179Z,17.29
2019-01-25T14:53:21.491Z,17.99
2019-01-25T14:55:52.262Z,16.69
2019-01-25T14:58:23.193Z,17.06
2019-01-25T15:00:54.833Z,17.07
2019-01-25T15:03:25.149Z,16.96
2019-01-25T15:05:55.757Z,15.96
2019-01-25T15:08:26.572Z,15.06
2019-01-25T15:10:57.669Z,14.20
2019-01-25T15:13:28.529Z,11.15
2019-01-25T15:15:59.418Z,9.42
2019-01-25T15:18:29.999Z,9.15
2019-01-25T15:21:01.253Z,9.10
2019-01-25T15:23:31.614Z,8.50
2019-01-25T15:26:02.716Z,7.28
2019-01-25T15:28:34.086Z,6.27
2019-01-25T15:31:05.081Z,5.44
2019-01-25T15:33:36.424Z,4.83
2019-01-25T15:36:08.963Z,4.33
2019-01-25T15:38:41.644Z,3.87
2019-01-25T15:41:24.690Z,3.47
2019-01-25T15:43:55.580Z,3.12
2019-01-25T15:46:27.298Z,2.85
2019-01-25T15:48:58.757Z,2.65
2019-01-25T15:51:30.051Z,2.54
2019-01-25T15:54:02.261Z,2.45
2019-01-25T15:56:32.762Z,2.20
2019-01-25T15:59:06.433Z,1.93
2019-01-25T16:01:37.842Z,1.67
2019-01-25T16:04:09.992Z,1.45
2019-01-25T16:06:41.479Z,1.19
2019-01-25T16:09:16.603Z,1.02
2019-01-25T16:11:47.986Z,0.86
2019-01-25T16:14:20.737Z,0.80
2019-01-25T16:16:54.424Z,0.67
2019-01-25T16:19:25.560Z,0.50
2019-01-25T16:21:57.663Z,0.36
2019-01-25T16:24:29.675Z,0.19
2019-01-25T16:27:01.391Z,0.05
2019-01-25T16:29:34.330Z,-0.04
2019-01-25T16:32:06.810Z,-0.06
2019-01-25T16:34:38.692Z,-0.18
2019-01-25T16:37:09.904Z,-0.32
2019-01-25T16:39:41.670Z,-0.44
2019-01-25T16:42:13.588Z,-0.53
2019-01-25T16:44:45.662Z,-0.61
2019-01-25T16:47:18.579Z,-0.67
2019-01-25T16:49:50.445Z,-0.74
2019-01-25T16:52:22.760Z,-0.83
2019-01-25T16:54:53.963Z,-0.92
2019-01-25T16:57:27.548Z,-0.93
2019-01-25T16:59:59.683Z,-0.97
2019-01-25T17:02:32.809Z,-0.98
2019-01-25T17:05:06.295Z,-0.97
2019-01-25T17:07:36.788Z,-0.97
2019-01-25T17:10:07.617Z,-0.88
2019-01-25T17:12:38.258Z,-0.82
2019-01-25T17:15:09.506Z,-0.76
2019-01-25T17:17:41.262Z,-0.70
2019-01-25T17:20:17.806Z,-0.63
2019-01-25T17:22:44.535Z,-0.53
2019-01-25T17:25:15.318Z,-0.51
2019-01-25T17:27:46.856Z,-0.49
2019-01-25T17:30:26.104Z,-0.50
2019-01-25T17:32:59.174Z,-0.43
2019-01-25T17:35:33.492Z,-0.46
2019-01-25T17:38:07.229Z,-0.50
2019-01-25T17:40:46.940Z,-0.60
2019-01-25T17:43:17.950Z,-0.74
2019-01-25T17:45:50.258Z,-0.93
2019-01-25T17:48:23.825Z,-1.08
2019-01-25T17:50:55.987Z,-1.21
2019-01-25T17:53:28.683Z,-1.29
2019-01-25T17:56:01.294Z,-1.32
2019-01-25T17:58:36.489Z,-1.32
2019-01-25T18:01:10.285Z,-1.25
2019-01-25T18:03:45.147Z,-1.19
2019-01-25T18:06:18.962Z,-1.17
2019-01-25T18:08:51.749Z,-1.11
2019-01-25T18:11:24.802Z,-1.01
2019-01-25T18:13:58.042Z,-0.77
2019-01-25T18:16:33.052Z,-0.60
2019-01-25T18:19:06.835Z,-0.54
2019-01-25T18:21:40.748Z,-0.48
2019-01-25T18:24:14.885Z,-0.38
2019-01-25T18:26:49.311Z,-0.22
2019-01-25T18:29:44.803Z,-0.10
2019-01-25T18:32:27.291Z,-0.03
2019-01-25T18:35:01.903Z,-0.05
2019-01-25T18:37:43.042Z,-0.07
2019-01-25T18:40:17.842Z,-0.10
2019-01-25T18:42:53.320Z,-0.10
2019-01-25T18:45:27.769Z,-0.08
2019-01-25T18:48:03.080Z,-0.01
2019-01-25T18:50:36.892Z,-0.04
2019-01-25T18:53:10.607Z,-0.06
2019-01-25T18:55:44.164Z,-0.11
2019-01-25T18:58:18.618Z,-0.12
2019-01-25T19:00:54.349Z,-0.10
2019-01-25T19:03:28.332Z,-0.10
2019-01-25T19:06:03.719Z,-0.06
2019-01-25T19:08:39.504Z,-0.07
2019-01-25T19:11:13.711Z,-0.03
2019-01-25T19:13:49.629Z,-0.02
2019-01-25T19:16:24.877Z,0.03
2019-01-25T19:19:02.745Z,0.06
2019-01-25T19:21:37.231Z,0.12
2019-01-25T19:24:12.473Z,0.12
2019-01-25T19:26:47.628Z,0.12
2019-01-25T19:29:23.464Z,0.14
2019-01-25T19:31:57.955Z,0.16
2019-01-25T19:34:31.517Z,0.16
2019-01-25T19:37:05.440Z,0.15
2019-01-25T19:39:41.423Z,0.16
2019-01-25T19:42:17.975Z,0.18
2019-01-25T19:44:54.343Z,0.21
2019-01-25T19:47:29.255Z,0.27
2019-01-25T19:50:05.944Z,0.38
2019-01-25T19:52:41.787Z,0.38
2019-01-25T19:55:18.862Z,0.37
2019-01-25T19:57:53.866Z,0.45
2019-01-25T20:00:38.408Z,0.41
2019-01-25T20:03:15.758Z,0.40
2019-01-25T20:05:50.971Z,0.41
2019-01-25T20:08:26.013Z,0.43
2019-01-25T20:11:01.104Z,0.43
2019-01-25T20:13:39.314Z,0.50
2019-01-25T20:16:15.439Z,0.55
2019-01-25T20:18:51.546Z,0.55
2019-01-25T20:21:27.555Z,0.47
2019-01-25T20:24:04.513Z,0.37
2019-01-25T20:26:41.153Z,0.34
2019-01-25T20:29:15.873Z,0.34
2019-01-25T20:31:51.463Z,0.29
2019-01-25T20:34:25.354Z,0.34
2019-01-25T20:36:59.726Z,0.34
2019-01-25T20:39:34.210Z,0.39
2019-01-25T20:42:09.124Z,0.46
2019-01-25T20:44:45.902Z,0.49
2019-01-25T20:47:20.504Z,0.53
2019-01-25T20:49:56.375Z,0.56
2019-01-25T20:52:30.830Z,0.64
2019-01-25T20:55:06.924Z,0.63
2019-01-25T20:57:40.658Z,0.64
2019-01-25T21:00:26.631Z,0.65
2019-01-25T21:03:00.953Z,0.64
2019-01-25T21:05:35.416Z,0.60
2019-01-25T21:08:11.811Z,0.59
2019-01-25T21:10:48.027Z,0.60
2019-01-25T21:13:21.586Z,0.60
2019-01-25T21:15:56.419Z,0.65
2019-01-25T21:18:30.943Z,0.62
2019-01-25T21:21:04.863Z,0.58
2019-01-25T21:23:39.060Z,0.57
2019-01-25T21:26:12.915Z,0.55
2019-01-25T21:28:47.552Z,0.58
2019-01-25T21:31:20.722Z,0.57
2019-01-25T21:33:54.143Z,0.58
2019-01-25T21:36:30.211Z,0.61
2019-01-25T21:39:06.828Z,0.65
2019-01-25T21:41:40.753Z,0.70
2019-01-25T21:44:16.063Z,0.68
2019-01-25T21:46:50.755Z,0.66
2019-01-25T21:49:25.119Z,0.62
2019-01-25T21:51:58.543Z,0.65
2019-01-25T21:54:31.955Z,0.65
2019-01-25T21:57:04.741Z,0.67
2019-01-25T21:59:38.115Z,0.65
2019-01-25T22:02:11.611Z,0.67
2019-01-25T22:04:44.272Z,0.59
2019-01-25T22:07:15.322Z,0.58
2019-01-25T22:09:46.518Z,0.59
2019-01-25T22:12:20.598Z,0.60
2019-01-25T22:14:53.185Z,0.61
2019-01-25T22:17:25.740Z,0.63
2019-01-25T22:19:59.119Z,0.64
2019-01-25T22:22:30.191Z,0.68
2019-01-25T22:25:01.678Z,0.71
2019-01-25T22:27:32.619Z,0.76
2019-01-25T22:30:03.099Z,0.77
2019-01-25T22:32:33.653Z,0.73
2019-01-25T22:35:04.985Z,0.74
2019-01-25T22:37:35.516Z,0.71
2019-01-25T22:40:08.204Z,0.69
2019-01-25T22:42:38.574Z,0.65
2019-01-25T22:45:12.155Z,0.66
2019-01-25T22:47:43.047Z,0.70
2019-01-25T22:50:19.495Z,0.71
2019-01-25T22:52:50.053Z,0.72
2019-01-25T22:55:21.036Z,0.81
2019-01-25T22:57:51.746Z,0.86
2019-01-25T23:01:03.390Z,0.86
2019-01-25T23:04:34.463Z,0.92
2019-01-25T23:07:10.252Z,0.88
2019-01-25T23:09:52.389Z,0.79
2019-01-25T23:12:22.634Z,0.80
2019-01-25T23:14:53.277Z,0.80
2019-01-25T23:17:24.217Z,0.82
2019-01-25T23:19:54.612Z,0.84
2019-01-25T23:22:24.832Z,0.82
2019-01-25T23:24:56.738Z,0.89
2019-01-25T23:27:27.358Z,0.97
2019-01-25T23:29:57.989Z,1.00
2019-01-25T23:32:28.389Z,0.97
2019-01-25T23:34:58.634Z,1.02
2019-01-25T23:37:28.835Z,1.01
2019-01-25T23:39:59.060Z,0.99
2019-01-25T23:42:29.345Z,0.93
2019-01-25T23:44:59.971Z,1.00
2019-01-25T23:47:30.460Z,0.99
2019-01-25T23:50:00.704Z,1.05
2019-01-25T23:52:31.840Z,1.06
2019-01-25T23:55:02.051Z,1.06
2019-01-25T23:57:32.309Z,1.06
